Time;durP1;ratioP1;P1;durP2;ratioP2;P2;SDS_P1;SDS_P2;PMS_P1;PMS_P2;Temp;Humidity;BMP_temperature;BMP_pressure;BME280_temperature;BME280_humidity;BME280_pressure;Samples;Min_cycle;Max_cycle;Signal;HPM_P1;HPM_P2
2021/12/07 00:01:23;;;;;;;9.73;7.40;;;;;;;-0.21;95.32;100427.31;5022758;28;20030;-81
2021/12/07 00:03:49;;;;;;;9.80;7.20;;;;;;;-0.17;95.33;100426.56;4997667;28;20051;-80
2021/12/07 00:06:15;;;;;;;9.23;7.50;;;;;;;-0.13;95.45;100432.66;5001197;28;20033;-81
2021/12/07 00:08:41;;;;;;;9.10;7.07;;;;;;;-0.10;95.78;100436.19;5037068;28;20073;-80
2021/12/07 00:11:08;;;;;;;9.80;8.27;;;;;;;-0.07;95.68;100431.13;5024228;28;20041;-81
2021/12/07 00:13:37;;;;;;;8.70;7.60;;;;;;;-0.02;95.57;100436.38;5020448;28;20488;-80
2021/12/07 00:16:06;;;;;;;10.25;8.05;;;;;;;0.01;95.51;100431.28;5038352;28;20106;-83
2021/12/07 00:18:32;;;;;;;10.88;8.05;;;;;;;0.06;95.45;100436.56;5017619;28;20662;-80
2021/12/07 00:20:58;;;;;;;12.80;9.52;;;;;;;0.07;95.28;100436.63;5043276;28;20087;-81
2021/12/07 00:23:23;;;;;;;17.15;10.70;;;;;;;0.10;95.46;100439.25;5028621;28;20025;-80
2021/12/07 00:25:49;;;;;;;15.10;10.35;;;;;;;0.14;95.61;100442.78;5002356;28;20037;-82
2021/12/07 00:28:20;;;;;;;14.70;11.10;;;;;;;0.16;95.68;100446.28;5005668;28;20041;-79
2021/12/07 00:30:48;;;;;;;17.00;11.15;;;;;;;0.17;95.63;100440.25;5013968;28;20042;-82
2021/12/07 00:33:29;;;;;;;16.50;10.63;;;;;;;0.20;94.96;100442.06;5015900;28;20128;-81
2021/12/07 02:04:09;;;;;;;25.08;13.13;;;;;;;1.33;95.60;100569.28;5020662;28;20040;-75
2021/12/07 02:06:35;;;;;;;21.48;12.00;;;;;;;1.35;95.28;100563.31;5010721;28;20026;-76
2021/12/07 02:09:00;;;;;;;22.60;11.90;;;;;;;1.40;95.07;100575.47;5018851;28;20036;-75
2021/12/07 02:11:26;;;;;;;24.73;13.20;;;;;;;1.38;95.43;100575.44;5006367;28;20041;-75
2021/12/07 02:16:19;;;;;;;20.77;11.55;;;;;;;1.44;95.71;100584.97;5024129;28;20132;-73
2021/12/07 02:18:46;;;;;;;21.80;12.13;;;;;;;1.44;95.17;100587.56;5006023;28;20096;-77
2021/12/07 02:21:19;;;;;;;21.58;11.23;;;;;;;1.46;95.41;100594.50;5022294;28;20032;-75
2021/12/07 02:23:45;;;;;;;19.45;11.40;;;;;;;1.49;95.49;100591.13;5048112;28;20056;-76
2021/12/07 02:26:10;;;;;;;20.52;10.57;;;;;;;1.49;95.25;100596.28;5009968;28;20474;-76
2021/12/07 02:28:39;;;;;;;24.27;10.70;;;;;;;1.49;95.51;100596.28;5024150;28;20291;-74
2021/12/07 02:31:05;;;;;;;21.90;11.25;;;;;;;1.50;95.38;100600.63;5024209;28;20556;-75
2021/12/07 02:33:31;;;;;;;26.20;10.57;;;;;;;1.50;95.20;100600.63;5020971;28;20478;-75
2021/12/07 02:36:00;;;;;;;25.70;9.90;;;;;;;1.50;95.16;100603.22;5058892;28;20045;-75
2021/12/07 02:38:25;;;;;;;18.55;9.80;;;;;;;1.49;94.69;100614.38;5014817;28;20536;-75
2021/12/07 02:40:51;;;;;;;22.63;8.23;;;;;;;1.52;95.07;100617.91;5032727;28;20091;-76
2021/12/07 02:43:16;;;;;;;16.80;7.00;;;;;;;1.55;95.15;100624.81;5009311;28;20030;-76
2021/12/07 02:45:42;;;;;;;17.48;8.60;;;;;;;1.60;95.44;100620.66;5058507;28;20826;-78
2021/12/07 02:48:08;;;;;;;27.48;7.72;;;;;;;1.61;95.06;100618.91;5022966;28;20078;-74
2021/12/07 02:50:36;;;;;;;12.48;7.10;;;;;;;1.61;95.41;100624.97;5027242;28;20064;-76
2021/12/07 02:53:02;;;;;;;24.83;6.82;;;;;;;1.60;94.65;100630.97;5006783;28;20095;-76
2021/12/07 02:55:30;;;;;;;15.95;6.57;;;;;;;1.59;94.42;100642.13;5024333;28;20115;-75
2021/12/07 02:57:56;;;;;;;21.33;6.45;;;;;;;1.57;94.70;100641.25;5012982;28;20440;-75
2021/12/07 03:00:26;;;;;;;22.83;7.10;;;;;;;1.57;94.08;100646.41;5023814;28;20473;-75
2021/12/07 03:02:58;;;;;;;18.08;6.82;;;;;;;1.56;94.16;100652.41;5034547;28;20040;-83
2021/12/07 03:26:46;;;;;;;21.27;4.88;;;;;;;1.55;93.75;100689.41;5022661;28;20393;-82
2021/12/07 03:29:12;;;;;;;21.13;4.90;;;;;;;1.51;93.89;100679.88;5043717;28;20037;-81
2021/12/07 03:31:37;;;;;;;12.93;5.03;;;;;;;1.50;93.53;100672.94;5029912;28;20061;-83
2021/12/07 03:34:03;;;;;;;14.00;4.35;;;;;;;1.49;93.94;100678.94;5013526;28;20032;-83
2021/12/07 03:36:29;;;;;;;20.58;5.63;;;;;;;1.46;93.83;100689.19;5051024;28;20018;-84
2021/12/07 03:38:55;;;;;;;13.30;3.85;;;;;;;1.44;93.71;100694.34;5014803;28;20036;-80
2021/12/07 03:41:21;;;;;;;10.45;4.00;;;;;;;1.41;93.68;100699.44;5024122;28;20390;-84
2021/12/07 03:43:47;;;;;;;12.27;4.22;;;;;;;1.36;94.07;100699.28;5025117;28;20471;-81
2021/12/07 03:46:13;;;;;;;16.38;4.65;;;;;;;1.36;93.79;100713.94;5021746;28;20033;-81
2021/12/07 03:48:40;;;;;;;21.73;5.80;;;;;;;1.31;94.24;100716.41;5035163;28;20037;-80
2021/12/07 03:51:06;;;;;;;16.80;4.25;;;;;;;1.26;94.10;100717.13;5021854;28;20054;-82
2021/12/07 03:53:32;;;;;;;16.95;4.53;;;;;;;1.22;94.08;100721.34;5046915;28;20357;-81
2021/12/07 03:55:58;;;;;;;18.30;4.93;;;;;;;1.17;93.50;100715.19;5050864;28;20024;-81
2021/12/07 03:58:24;;;;;;;12.20;4.10;;;;;;;1.19;93.54;100726.41;5007998;28;20028;-79
2021/12/07 04:00:50;;;;;;;17.35;3.42;;;;;;;1.13;93.78;100732.31;5014013;28;20063;-80
2021/12/07 04:03:17;;;;;;;16.05;4.28;;;;;;;1.10;93.25;100726.22;5018499;28;20037;-81
2021/12/07 04:05:47;;;;;;;14.57;4.07;;;;;;;1.06;93.29;100724.38;4997946;28;20386;-81
2021/12/07 04:08:15;;;;;;;24.08;4.32;;;;;;;1.05;93.73;100723.53;5011173;28;20128;-80
2021/12/07 04:10:40;;;;;;;9.80;3.58;;;;;;;1.04;94.01;100721.75;5025619;28;20075;-80
2021/12/07 04:13:09;;;;;;;35.72;5.18;;;;;;;1.00;93.60;100723.38;5017316;28;20036;-81
2021/12/07 04:15:34;;;;;;;9.93;3.85;;;;;;;0.99;93.56;100724.25;5025367;28;20076;-80
2021/12/07 04:18:01;;;;;;;15.63;4.07;;;;;;;0.95;93.76;100725.00;5016996;28;20053;-80
2021/12/07 04:20:26;;;;;;;10.65;2.72;;;;;;;0.95;93.43;100737.00;5042291;28;20068;-79
2021/12/07 04:22:52;;;;;;;26.08;4.75;;;;;;;0.93;93.63;100749.84;5009188;28;20065;-80
2021/12/07 04:25:20;;;;;;;23.20;4.32;;;;;;;0.93;94.11;100743.84;5017635;28;20076;-80
2021/12/07 04:27:46;;;;;;;12.77;3.83;;;;;;;0.92;93.82;100748.13;5032924;28;20512;-80
2021/12/07 04:30:19;;;;;;;13.90;3.58;;;;;;;0.91;93.58;100735.19;5006003;28;20033;-80
2021/12/07 04:32:44;;;;;;;13.25;4.57;;;;;;;0.88;94.07;100738.56;5040363;28;20044;-80
2021/12/07 04:35:11;;;;;;;5.82;3.20;;;;;;;0.85;93.57;100754.84;5012183;28;20033;-80
2021/12/07 04:37:38;;;;;;;15.68;3.55;;;;;;;0.81;93.43;100759.88;5036278;28;20060;-81
2021/12/07 04:40:08;;;;;;;19.35;4.30;;;;;;;0.78;93.69;100760.66;5022073;28;20136;-82
2021/12/07 04:42:33;;;;;;;8.85;3.75;;;;;;;0.76;93.79;100762.34;5022201;28;20021;-81
2021/12/07 04:45:03;;;;;;;14.57;3.70;;;;;;;0.70;93.60;100767.31;5008914;28;20033;-82
2021/12/07 04:57:59;;;;;;;17.55;3.63;;;;;;;0.59;93.68;100779.94;5034094;28;20120;-81
2021/12/07 05:00:27;;;;;;;13.27;3.95;;;;;;;0.53;93.60;100769.41;5025831;28;20029;-81
2021/12/07 05:02:57;;;;;;;15.27;3.58;;;;;;;0.51;93.93;100761.63;5039361;28;20063;-81
2021/12/07 05:05:28;;;;;;;6.88;3.83;;;;;;;0.49;93.67;100780.50;5020573;28;20037;-81
2021/12/07 05:07:56;;;;;;;16.42;3.50;;;;;;;0.44;93.76;100794.94;5018709;28;20034;-80
2021/12/07 05:10:30;;;;;;;22.98;3.78;;;;;;;0.42;93.60;100786.31;5032502;28;20030;-81
2021/12/07 05:40:29;;;;;;;12.88;4.20;;;;;;;0.13;93.98;100835.28;5016712;28;20052;-80
2021/12/07 05:42:56;;;;;;;13.65;3.83;;;;;;;0.12;94.10;100839.56;5025867;28;20363;-82
2021/12/07 05:45:27;;;;;;;6.03;3.60;;;;;;;0.09;94.09;100844.63;5013773;28;20056;-81
2021/12/07 05:47:53;;;;;;;19.27;5.22;;;;;;;0.09;93.95;100851.50;5026559;28;20022;-80
2021/12/07 05:50:22;;;;;;;23.30;4.40;;;;;;;0.09;94.04;100860.09;5024392;28;20050;-80
2021/12/07 05:52:48;;;;;;;12.52;3.97;;;;;;;0.08;94.44;100872.94;5039223;28;20026;-80
2021/12/07 05:55:15;;;;;;;12.95;4.65;;;;;;;0.07;94.28;100878.91;5021175;28;20090;-81
2021/12/07 05:57:41;;;;;;;15.45;4.55;;;;;;;0.06;94.47;100877.13;5028998;28;20060;-80
2021/12/07 06:00:11;;;;;;;20.38;5.25;;;;;;;0.06;94.31;100880.59;5015567;28;20062;-80
2021/12/07 06:02:36;;;;;;;14.50;4.65;;;;;;;0.04;94.47;100884.81;5031117;28;20072;-80
2021/12/07 06:05:03;;;;;;;13.27;3.95;;;;;;;0.09;94.45;100890.16;5000120;28;20042;-80
2021/12/07 06:07:28;;;;;;;20.88;5.30;;;;;;;0.05;94.39;100880.56;5040715;28;20029;-79
2021/12/07 06:09:54;;;;;;;9.27;3.53;;;;;;;0.01;94.55;100883.88;5019393;28;20095;-80
2021/12/07 06:12:19;;;;;;;11.70;4.10;;;;;;;-0.01;94.16;100892.41;5014839;28;20036;-79
2021/12/07 06:14:45;;;;;;;13.43;4.25;;;;;;;-0.04;94.48;100892.31;5016705;28;20505;-78
2021/12/07 06:17:11;;;;;;;11.43;4.47;;;;;;;-0.06;94.43;100885.34;5025623;28;20029;-79
2021/12/07 06:19:37;;;;;;;28.02;6.95;;;;;;;-0.03;94.59;100883.78;5028624;28;20049;-78
2021/12/07 06:22:05;;;;;;;15.05;4.40;;;;;;;-0.07;94.52;100881.91;5005678;28;20029;-78
2021/12/07 06:24:31;;;;;;;14.90;6.90;;;;;;;-0.06;94.63;100870.78;5012066;28;20034;-78
2021/12/07 06:26:59;;;;;;;24.17;5.95;;;;;;;-0.10;94.34;100881.81;5026279;28;20048;-78
2021/12/07 06:29:25;;;;;;;22.08;5.28;;;;;;;-0.09;94.62;100888.69;5007949;28;20038;-78
2021/12/07 06:31:50;;;;;;;18.55;6.47;;;;;;;-0.07;94.73;100879.34;5008542;28;20049;-79
2021/12/07 06:34:16;;;;;;;17.90;8.35;;;;;;;-0.04;94.96;100883.72;5023485;28;20033;-79
2021/12/07 06:36:41;;;;;;;15.80;6.38;;;;;;;-0.09;94.65;100893.84;5020528;28;20033;-78
2021/12/07 06:39:09;;;;;;;14.80;6.07;;;;;;;-0.08;94.57;100893.03;5042206;28;20063;-78
2021/12/07 06:41:35;;;;;;;28.65;7.30;;;;;;;-0.09;94.68;100891.28;5032154;28;20032;-81
2021/12/07 06:44:01;;;;;;;19.42;7.25;;;;;;;-0.11;94.94;100898.09;5027794;28;20038;-81
2021/12/07 06:46:28;;;;;;;15.65;6.25;;;;;;;-0.10;95.14;100896.38;5022772;28;20037;-83
2021/12/07 06:48:53;;;;;;;38.67;9.05;;;;;;;-0.10;94.94;100888.66;5027352;28;20041;-82
2021/12/07 06:51:19;;;;;;;14.88;6.03;;;;;;;-0.11;94.67;100895.50;5045349;28;20076;-80
2021/12/07 06:57:06;;;;;;;23.90;7.32;;;;;;;-0.07;95.03;100894.78;5346235;23;20127;-80
2021/12/07 06:59:32;;;;;;;14.52;8.10;;;;;;;-0.07;95.16;100899.94;5013872;28;20428;-82
2021/12/07 07:01:57;;;;;;;21.30;8.60;;;;;;;-0.04;95.00;100904.34;4996529;28;20440;-81
2021/12/07 07:04:23;;;;;;;19.98;7.63;;;;;;;-0.01;95.01;100910.44;5024858;28;20063;-78
2021/12/07 07:06:50;;;;;;;19.35;8.82;;;;;;;-0.01;95.05;100910.44;5011040;28;20439;-80
2021/12/07 07:09:17;;;;;;;17.45;8.35;;;;;;;-0.01;95.16;100909.56;5023629;28;20040;-82
2021/12/07 07:11:43;;;;;;;13.65;7.38;;;;;;;-0.01;95.24;100920.75;4994663;28;20037;-79
2021/12/07 07:14:08;;;;;;;20.10;7.60;;;;;;;-0.02;95.13;100919.00;5029355;28;20029;-81
2021/12/07 07:16:35;;;;;;;14.98;7.55;;;;;;;-0.02;95.11;100924.13;5025031;28;20034;-83
2021/12/07 07:19:01;;;;;;;18.23;7.80;;;;;;;-0.02;95.06;100921.56;5029797;28;20057;-81
2021/12/07 07:21:26;;;;;;;14.68;7.47;;;;;;;-0.03;95.08;100916.38;4997551;28;20444;-80
2021/12/07 07:23:53;;;;;;;28.52;6.95;;;;;;;-0.01;95.14;100918.16;5004655;28;20033;-82
2021/12/07 07:26:19;;;;;;;26.33;9.00;;;;;;;-0.01;95.06;100910.44;5039799;28;20029;-81
2021/12/07 07:28:45;;;;;;;34.33;9.75;;;;;;;-0.02;95.30;100913.84;5008990;28;20119;-79
2021/12/07 07:31:11;;;;;;;15.95;6.72;;;;;;;-0.01;95.09;100919.88;4979523;28;20125;-79
2021/12/07 07:33:37;;;;;;;41.70;10.43;;;;;;;0.01;95.19;100920.78;5021409;28;20026;-80
2021/12/07 07:36:03;;;;;;;25.33;8.85;;;;;;;0.04;95.30;100922.59;5036481;28;20040;-76
2021/12/07 07:38:29;;;;;;;18.63;9.40;;;;;;;0.05;95.16;100921.78;5018039;28;20091;-79
2021/12/07 07:40:54;;;;;;;18.05;8.93;;;;;;;0.07;95.08;100927.84;5013392;28;20033;-78
2021/12/07 07:43:20;;;;;;;21.70;9.30;;;;;;;0.10;95.23;100922.78;5045721;28;20420;-78
2021/12/07 07:45:49;;;;;;;20.98;9.90;;;;;;;0.14;95.30;100927.22;5007297;28;20077;-80
2021/12/07 07:48:16;;;;;;;16.70;8.02;;;;;;;0.18;95.39;100936.81;5028231;28;20120;-82
2021/12/07 07:50:42;;;;;;;17.67;7.90;;;;;;;0.21;94.91;100943.78;5006087;28;20501;-80
2021/12/07 07:53:07;;;;;;;20.98;9.65;;;;;;;0.20;95.21;100927.41;5005016;28;20072;-80
2021/12/07 07:55:35;;;;;;;36.35;11.73;;;;;;;0.24;95.33;100925.81;5008296;28;20033;-79
2021/12/07 07:58:02;;;;;;;22.00;8.85;;;;;;;0.28;95.45;100925.09;5005529;28;20049;-80
2021/12/07 08:00:28;;;;;;;23.80;9.80;;;;;;;0.33;95.04;100931.25;5029104;28;20362;-80
2021/12/07 08:02:53;;;;;;;21.35;10.10;;;;;;;0.38;95.24;100914.22;5029603;28;20567;-80
2021/12/07 08:05:19;;;;;;;20.60;6.70;;;;;;;0.43;94.92;100914.38;5011200;28;20034;-80
2021/12/07 08:07:47;;;;;;;18.75;9.57;;;;;;;0.50;94.97;100911.16;5000197;28;20040;-80
2021/12/07 08:10:16;;;;;;;21.60;8.85;;;;;;;0.58;94.83;100906.25;5043289;28;20454;-81
2021/12/07 08:12:41;;;;;;;13.93;7.40;;;;;;;0.69;94.79;100910.03;5028722;28;20036;-79
2021/12/07 08:15:07;;;;;;;16.52;8.15;;;;;;;0.79;94.92;100917.19;5012316;28;20037;-80
2021/12/07 08:17:33;;;;;;;20.88;8.68;;;;;;;0.90;94.33;100914.06;5003491;28;20087;-82
2021/12/07 08:19:59;;;;;;;23.40;8.20;;;;;;;0.98;94.20;100913.44;5011256;28;20083;-81
2021/12/07 08:22:24;;;;;;;21.42;8.85;;;;;;;1.15;93.87;100913.91;5012444;28;20493;-82
2021/12/07 08:24:50;;;;;;;14.52;7.40;;;;;;;1.22;93.58;100912.34;4997133;28;20472;-82
2021/12/07 08:27:16;;;;;;;22.95;8.70;;;;;;;1.30;93.42;100913.44;5009658;28;20121;-81
2021/12/07 08:29:41;;;;;;;25.10;9.15;;;;;;;1.39;92.69;100925.72;5011306;28;20028;-81
2021/12/07 08:32:07;;;;;;;36.85;12.63;;;;;;;1.53;92.95;100924.38;5012536;28;20409;-78
2021/12/07 08:34:33;;;;;;;19.20;9.50;;;;;;;1.66;92.42;100929.88;5007791;28;20436;-80
2021/12/07 08:36:58;;;;;;;25.60;9.98;;;;;;;1.88;92.96;100933.88;5021160;28;20040;-79
2021/12/07 08:39:23;;;;;;;19.90;7.53;;;;;;;2.29;91.88;100930.59;5011038;28;20400;-80
2021/12/07 08:41:49;;;;;;;22.45;9.00;;;;;;;2.91;90.48;100928.50;4996671;28;20033;-80
2021/12/07 08:44:15;;;;;;;16.63;6.47;;;;;;;3.22;88.43;100925.66;5028014;28;20037;-80
2021/12/07 08:46:40;;;;;;;19.52;7.85;;;;;;;3.22;87.31;100931.72;5012090;28;20029;-81
2021/12/07 08:49:06;;;;;;;16.98;6.50;;;;;;;3.04;86.77;100936.53;5012003;28;20071;-80
2021/12/07 08:51:32;;;;;;;19.30;6.55;;;;;;;2.84;86.92;100936.97;5012318;28;20040;-85
2021/12/07 08:54:18;;;;;;;18.52;7.07;;;;;;;2.62;85.92;100946.00;5013013;28;20049;-84
2021/12/07 09:02:07;;;;;;;17.17;6.57;;;;;;;2.51;88.14;100930.22;5037832;28;20060;-83
2021/12/07 09:04:33;;;;;;;9.80;4.68;;;;;;;2.60;87.44;100926.97;5007923;28;20485;-85
2021/12/07 09:07:00;;;;;;;10.32;5.28;;;;;;;2.63;87.54;100918.41;5012129;28;20044;-85
2021/12/07 09:09:27;;;;;;;14.27;6.38;;;;;;;2.81;88.07;100917.94;5027820;28;20068;-84
2021/12/07 09:11:54;;;;;;;26.98;7.80;;;;;;;2.96;87.57;100918.25;4995636;28;20085;-85
2021/12/07 09:14:20;;;;;;;11.77;5.10;;;;;;;3.23;87.08;100906.69;5027167;28;20045;-86
2021/12/07 09:16:45;;;;;;;12.90;4.95;;;;;;;4.24;86.79;100917.06;5009164;28;20327;-84
2021/12/07 09:19:11;;;;;;;15.18;6.50;;;;;;;5.72;83.28;100905.91;5008068;28;20033;-84
2021/12/07 09:21:37;;;;;;;13.02;6.30;;;;;;;7.06;77.83;100896.38;4995252;28;20037;-86
2021/12/07 09:24:03;;;;;;;14.55;4.90;;;;;;;8.13;73.52;100902.63;5006216;28;20497;-84
2021/12/07 09:26:29;;;;;;;12.02;4.32;;;;;;;8.74;70.20;100906.00;5028550;28;20030;-85
2021/12/07 09:28:54;;;;;;;15.63;5.85;;;;;;;9.60;70.97;100916.94;5025440;28;20485;-84
2021/12/07 09:31:22;;;;;;;10.40;5.13;;;;;;;10.03;64.27;100914.88;5027077;28;20033;-83
2021/12/07 09:33:48;;;;;;;13.85;4.80;;;;;;;10.52;65.35;100910.09;5025964;28;20069;-86
2021/12/07 09:36:14;;;;;;;12.88;6.03;;;;;;;10.03;61.82;100914.88;5012637;28;20507;-86
2021/12/07 09:38:41;;;;;;;8.10;4.60;;;;;;;10.75;63.44;100917.69;5012705;28;20041;-84
2021/12/07 09:41:08;;;;;;;15.45;5.85;;;;;;;11.92;61.59;100918.75;5027802;28;20397;-82
2021/12/07 09:43:36;;;;;;;17.20;6.47;;;;;;;13.00;60.47;100916.78;5028193;28;20040;-84
2021/12/07 09:46:03;;;;;;;16.58;7.85;;;;;;;13.96;52.99;100913.81;5011895;28;20444;-84
2021/12/07 09:48:28;;;;;;;15.60;6.45;;;;;;;14.34;50.37;100911.97;4995813;28;20033;-83
2021/12/07 09:50:55;;;;;;;9.45;4.55;;;;;;;14.45;47.96;100909.91;5004542;28;20077;-82
2021/12/07 09:53:22;;;;;;;11.57;5.03;;;;;;;14.65;47.13;100913.81;5011627;28;20036;-84
2021/12/07 09:55:49;;;;;;;16.92;6.20;;;;;;;14.65;48.67;100913.81;5004761;28;20121;-83
2021/12/07 09:58:16;;;;;;;10.93;4.72;;;;;;;14.79;47.05;100919.56;5046556;28;20118;-83
2021/12/07 10:00:43;;;;;;;15.00;4.95;;;;;;;15.04;46.61;100925.00;5015832;28;20029;-85
2021/12/07 10:03:10;;;;;;;10.23;3.85;;;;;;;14.76;45.02;100919.66;5014904;28;20229;-84
2021/12/07 10:05:36;;;;;;;12.75;4.65;;;;;;;14.80;46.95;100923.94;5032662;28;20037;-84
2021/12/07 10:08:05;;;;;;;9.82;5.47;;;;;;;14.16;46.57;100913.31;5015169;28;20040;-83
2021/12/07 10:10:43;;;;;;;20.70;5.53;;;;;;;14.36;51.80;100908.38;5031207;28;20040;-82
2021/12/07 10:13:11;;;;;;;11.20;5.57;;;;;;;14.93;46.63;100907.75;5030038;28;20099;-82
2021/12/07 10:15:37;;;;;;;9.80;4.57;;;;;;;15.56;46.61;100914.66;5014166;28;20404;-82
2021/12/07 10:18:09;;;;;;;16.67;7.72;;;;;;;16.53;43.39;100918.50;5013625;28;20036;-83
2021/12/07 10:20:42;;;;;;;38.60;19.80;;;;;;;17.08;42.95;100910.38;5027128;28;20026;-84
2021/12/07 10:23:15;;;;;;;12.13;5.45;;;;;;;17.18;42.56;100900.28;5045059;28;20033;-83
2021/12/07 10:25:43;;;;;;;14.18;4.53;;;;;;;16.79;40.28;100890.25;5031595;28;20029;-83
2021/12/07 10:28:27;;;;;;;12.90;4.82;;;;;;;17.51;47.64;100888.44;5045682;28;20029;-83
2021/12/07 10:30:52;;;;;;;9.02;4.50;;;;;;;17.50;38.21;100892.88;5042776;28;20041;-83
2021/12/07 10:33:46;;;;;;;8.52;4.97;;;;;;;18.43;45.44;100894.34;5030356;28;20032;-84
2021/12/07 10:36:36;;;;;;;10.10;4.00;;;;;;;18.15;37.08;100900.88;5044325;28;20029;-84
2021/12/07 10:39:07;;;;;;;15.80;4.75;;;;;;;18.54;40.27;100886.78;5015921;28;20076;-83
2021/12/07 10:41:39;;;;;;;9.38;4.03;;;;;;;18.63;37.62;100881.09;5030440;28;20473;-82
2021/12/07 10:44:09;;;;;;;11.02;4.75;;;;;;;19.07;37.35;100871.19;5031539;28;20029;-86
2021/12/07 10:46:45;;;;;;;13.02;4.28;;;;;;;19.53;36.42;100877.78;5040346;28;20036;-83
2021/12/07 10:49:13;;;;;;;11.43;3.70;;;;;;;19.11;35.27;100864.81;5045921;28;20033;-82
2021/12/07 10:51:41;;;;;;;14.32;3.88;;;;;;;18.79;35.95;100860.00;5024015;28;20025;-83
2021/12/07 10:54:08;;;;;;;9.23;4.35;;;;;;;18.49;36.65;100854.31;5022180;28;20385;-83
2021/12/07 10:56:38;;;;;;;9.50;4.38;;;;;;;18.33;37.68;100854.97;5023190;28;20037;-83
2021/12/07 10:59:09;;;;;;;10.95;3.33;;;;;;;17.35;37.23;100851.09;5006493;28;20038;-83
2021/12/07 11:01:43;;;;;;;11.77;4.10;;;;;;;16.74;38.74;100847.22;5020815;28;20382;-83
2021/12/07 11:04:22;;;;;;;13.90;4.07;;;;;;;16.50;40.17;100833.97;5018607;28;20381;-81
2021/12/07 11:07:10;;;;;;;11.95;4.43;;;;;;;16.68;40.94;100826.28;5020638;28;20037;-82
2021/12/07 11:09:44;;;;;;;12.43;4.10;;;;;;;16.78;38.76;100832.97;5020442;28;20025;-84
2021/12/07 11:12:14;;;;;;;9.30;4.13;;;;;;;16.65;38.13;100815.81;5025924;28;20045;-84
2021/12/07 11:14:48;;;;;;;7.70;3.63;;;;;;;16.16;38.26;100808.78;5024333;28;20393;-80
2021/12/07 11:17:14;;;;;;;10.13;3.75;;;;;;;16.46;39.90;100797.97;5016458;28;20025;-81
2021/12/07 11:19:39;;;;;;;9.00;4.05;;;;;;;16.79;37.63;100801.16;4998941;28;20026;-82
2021/12/07 11:22:04;;;;;;;12.40;3.95;;;;;;;16.57;38.04;100801.09;4987525;28;20080;-81
2021/12/07 11:24:39;;;;;;;12.75;4.57;;;;;;;16.51;39.56;100795.19;5008285;28;20034;-82
2021/12/07 11:30:14;;;;;;;12.48;3.83;;;;;;;15.37;41.75;100787.63;5022597;28;20044;-81
2021/12/07 11:32:55;;;;;;;11.40;3.22;;;;;;;15.78;42.87;100795.06;5019702;28;20025;-80
2021/12/07 11:35:26;;;;;;;10.40;4.28;;;;;;;16.53;38.76;100791.53;5029899;28;20389;-80
2021/12/07 11:37:53;;;;;;;9.98;4.43;;;;;;;18.02;38.11;100783.84;5031389;28;20047;-81
2021/12/07 11:40:27;;;;;;;11.48;4.13;;;;;;;18.38;36.97;100792.91;5031546;28;20381;-80
2021/12/07 11:42:53;;;;;;;15.40;4.85;;;;;;;18.59;35.06;100791.91;5031203;28;20477;-82
2021/12/07 11:45:42;;;;;;;10.77;4.45;;;;;;;17.53;35.51;100786.78;5014674;28;20033;-85
2021/12/07 11:48:08;;;;;;;14.43;4.25;;;;;;;16.91;36.19;100783.09;5030991;28;20160;-81
2021/12/07 11:50:44;;;;;;;12.23;4.07;;;;;;;17.38;38.61;100780.31;4998497;28;20477;-79
2021/12/07 11:53:14;;;;;;;15.52;5.97;;;;;;;17.33;37.32;100779.66;5031027;28;20080;-79
2021/12/07 11:55:44;;;;;;;14.35;4.28;;;;;;;16.34;36.32;100767.56;5031404;28;20029;-78
2021/12/07 11:58:11;;;;;;;12.05;3.70;;;;;;;15.36;38.67;100774.47;5030833;28;20120;-83
2021/12/07 12:00:46;;;;;;;11.85;5.20;;;;;;;15.32;40.28;100776.34;5014772;28;20049;-79
2021/12/07 12:03:18;;;;;;;14.77;4.10;;;;;;;15.44;41.20;100772.41;5030354;28;20108;-79
2021/12/07 12:05:46;;;;;;;15.07;5.32;;;;;;;15.84;39.01;100764.97;5031124;28;20033;-79
2021/12/07 12:08:14;;;;;;;12.05;4.35;;;;;;;14.99;39.29;100751.91;5030421;28;20070;-86
2021/12/07 12:10:46;;;;;;;11.57;4.32;;;;;;;14.47;41.47;100749.91;5031155;28;20068;-78
2021/12/07 12:13:41;;;;;;;12.88;4.35;;;;;;;14.28;42.20;100743.41;5029581;28;20041;-79
2021/12/07 12:16:28;;;;;;;14.00;4.35;;;;;;;13.48;43.55;100739.41;5030671;28;20120;-87
2021/12/07 12:19:15;;;;;;;10.10;3.20;;;;;;;11.20;47.06;100744.03;5029391;28;20044;-77
2021/12/07 12:21:58;;;;;;;26.95;6.05;;;;;;;9.59;51.98;100732.06;5030619;28;20084;-85
2021/12/07 12:24:36;;;;;;;10.10;3.75;;;;;;;9.16;54.26;100738.53;5030026;28;20033;-82
2021/12/07 12:27:18;;;;;;;11.57;4.90;;;;;;;9.47;54.07;100725.22;5046176;28;20030;-81
2021/12/07 12:29:47;;;;;;;12.73;4.85;;;;;;;9.93;52.81;100722.13;5029441;28;20031;-81
2021/12/07 12:32:13;;;;;;;17.02;7.93;;;;;;;10.22;51.81;100715.69;5030183;28;20585;-80
2021/12/07 12:34:49;;;;;;;13.40;4.93;;;;;;;10.66;51.75;100706.41;5009641;28;20017;-82
2021/12/07 12:37:24;;;;;;;10.27;4.57;;;;;;;10.67;51.53;100702.00;5029703;28;20370;-78
2021/12/07 12:39:57;;;;;;;12.88;3.85;;;;;;;10.66;50.12;100695.03;5030205;28;20069;-81
2021/12/07 12:42:28;;;;;;;15.70;6.00;;;;;;;10.41;51.21;100708.47;5026871;28;20099;-81
2021/12/07 12:45:16;;;;;;;14.63;5.32;;;;;;;9.92;52.29;100702.06;5026434;28;20022;-80
2021/12/07 12:47:42;;;;;;;77.38;25.35;;;;;;;9.65;52.97;100704.06;5027196;28;20059;-79
2021/12/07 12:50:21;;;;;;;16.17;5.03;;;;;;;9.32;54.83;100687.84;5028214;28;20056;-77
2021/12/07 12:52:58;;;;;;;21.85;6.78;;;;;;;8.94;55.95;100685.56;5025605;28;20072;-78
2021/12/07 12:55:32;;;;;;;67.28;23.52;;;;;;;8.54;57.30;100668.38;5030037;28;20155;-80
2021/12/07 12:57:58;;;;;;;223.93;89.05;;;;;;;8.01;58.33;100665.13;5044535;28;20060;-82
2021/12/07 13:00:24;;;;;;;327.73;125.47;;;;;;;7.67;60.05;100648.72;5029604;28;20112;-80
2021/12/07 13:02:52;;;;;;;303.52;116.13;;;;;;;7.00;61.77;100646.25;5028079;28;20136;-78
2021/12/07 13:05:33;;;;;;;144.20;53.85;;;;;;;6.55;63.71;100635.78;5045782;28;20033;-78
2021/12/07 13:08:15;;;;;;;182.48;68.10;;;;;;;5.98;65.99;100626.97;5029888;28;20056;-78
2021/12/07 13:11:03;;;;;;;76.82;25.65;;;;;;;5.69;67.97;100618.16;5027916;28;20416;-81
2021/12/07 13:13:32;;;;;;;286.80;123.82;;;;;;;5.42;68.80;100607.63;5029005;28;20073;-81
2021/12/07 13:15:58;;;;;;;191.32;82.50;;;;;;;5.30;69.88;100601.50;5020112;28;20064;-78
2021/12/07 13:18:31;;;;;;;223.02;91.05;;;;;;;5.15;70.69;100598.78;5010775;28;20069;-79
2021/12/07 13:20:56;;;;;;;108.40;45.58;;;;;;;5.00;70.03;100589.19;5029829;28;20018;-83
2021/12/07 13:23:31;;;;;;;66.57;30.52;;;;;;;4.94;70.33;100586.50;4992209;28;20493;-81
2021/12/07 13:25:57;;;;;;;167.27;80.88;;;;;;;4.86;71.64;100571.75;5010253;28;20049;-79
2021/12/07 13:28:31;;;;;;;37.45;16.58;;;;;;;4.77;71.08;100566.50;5018192;28;20033;-82
2021/12/07 13:31:09;;;;;;;50.38;23.17;;;;;;;4.76;70.78;100540.53;5030622;28;20025;-83
2021/12/07 13:33:50;;;;;;;63.33;32.08;;;;;;;4.59;71.73;100546.44;5033569;28;20034;-79
2021/12/07 13:36:31;;;;;;;91.97;49.35;;;;;;;4.57;72.37;100544.69;5032637;28;20175;-79
2021/12/07 13:39:19;;;;;;;69.93;32.40;;;;;;;4.56;72.54;100555.94;5034871;28;20022;-79
2021/12/07 13:42:08;;;;;;;38.55;15.25;;;;;;;4.53;71.70;100546.41;5032416;28;20846;-80
2021/12/07 13:44:38;;;;;;;44.00;17.88;;;;;;;4.50;72.97;100551.56;5019178;28;20068;-78
2021/12/07 13:47:11;;;;;;;16.85;3.38;;;;;;;4.47;73.03;100554.16;5033324;28;20029;-79
2021/12/07 13:49:39;;;;;;;32.33;14.75;;;;;;;4.45;73.17;100541.16;5032260;28;20033;-79
2021/12/07 13:52:27;;;;;;;60.78;27.67;;;;;;;4.42;73.20;100540.25;5016824;28;20030;-80
2021/12/07 13:54:56;;;;;;;31.60;14.65;;;;;;;4.38;73.47;100536.75;5032610;28;20485;-78
2021/12/07 13:57:35;;;;;;;58.65;26.20;;;;;;;4.33;73.47;100528.06;5031497;28;20056;-81
2021/12/07 14:00:21;;;;;;;58.20;29.30;;;;;;;4.29;74.33;100526.31;5031336;28;20095;-78
2021/12/07 14:03:08;;;;;;;20.85;9.23;;;;;;;4.25;74.05;100511.56;5030746;28;20033;-79
2021/12/07 14:05:40;;;;;;;32.05;12.15;;;;;;;4.21;74.33;100517.59;5032480;28;20116;-79
2021/12/07 14:08:08;;;;;;;26.33;11.70;;;;;;;4.19;74.95;100519.31;5034254;28;20033;-81
2021/12/07 14:10:45;;;;;;;20.48;10.18;;;;;;;4.14;74.10;100506.31;5015938;28;20120;-82
2021/12/07 14:13:12;;;;;;;16.48;6.60;;;;;;;4.11;74.04;100501.94;5033074;28;20108;-78